Time;durP1;ratioP1;P1;durP2;ratioP2;P2;SDS_P1;SDS_P2;PMS_P1;PMS_P2;Temp;Humidity;BMP_temperature;BMP_pressure;BME280_temperature;BME280_humidity;BME280_pressure;Samples;Min_cycle;Max_cycle;Signal;HPM_P1;HPM_P2
2022/03/25 00:01:20;;;;;;;;;;;10.10;99.90;;;;;;4957236;28;19922;-87
2022/03/25 00:03:45;;;;;;;;;;;10.00;99.90;;;;;;4971819;28;19910;-87
2022/03/25 00:06:11;;;;;;;;;;;10.00;99.90;;;;;;4954414;28;19910;-87
2022/03/25 00:08:37;;;;;;;;;;;10.00;99.90;;;;;;4971891;28;20523;-87
2022/03/25 00:11:02;;;;;;;;;;;10.00;99.90;;;;;;4971822;28;19917;-87
2022/03/25 00:13:28;;;;;;;;;;;10.00;99.90;;;;;;4971608;28;19941;-87
2022/03/25 00:15:53;;;;;;;;;;;9.90;99.90;;;;;;4971427;28;19917;-95
2022/03/25 00:18:19;;;;;;;;;;;9.90;99.90;;;;;;4971654;28;20310;-87
2022/03/25 00:20:45;;;;;;;;;;;9.80;99.90;;;;;;4971550;28;19992;-87
2022/03/25 00:23:10;;;;;;;;;;;9.80;99.90;;;;;;4954612;28;19910;-87
2022/03/25 00:25:36;;;;;;;;;;;9.70;99.90;;;;;;4971585;28;19973;-88
2022/03/25 00:28:02;;;;;;;;;;;9.70;99.90;;;;;;4972125;28;20002;-87
2022/03/25 00:30:28;;;;;;;;;;;9.70;99.90;;;;;;4954083;28;20012;-87
2022/03/25 00:32:54;;;;;;;;;;;9.80;99.90;;;;;;4954235;28;19918;-87
2022/03/25 00:35:20;;;;;;;;;;;9.90;99.90;;;;;;4954361;28;19910;-87
2022/03/25 00:37:46;;;;;;;;;;;9.90;99.90;;;;;;4971534;28;19914;-96
2022/03/25 00:40:12;;;;;;;;;;;9.80;99.90;;;;;;4971789;28;19910;-87
2022/03/25 00:42:37;;;;;;;;;;;9.80;99.90;;;;;;4954081;28;20474;-87
2022/03/25 00:45:04;;;;;;;;;;;9.80;99.90;;;;;;4969840;28;20299;-87
2022/03/25 00:47:30;;;;;;;;;;;9.80;99.90;;;;;;4970981;28;20386;-87
2022/03/25 00:49:56;;;;;;;;;;;9.70;99.90;;;;;;4971398;28;19917;-87
2022/03/25 00:52:22;;;;;;;;;;;9.70;99.90;;;;;;4971442;28;19910;-86
2022/03/25 00:54:50;;;;;;;;;;;9.60;99.90;;;;;;4970987;28;19918;-87
2022/03/25 00:57:16;;;;;;;;;;;9.60;99.90;;;;;;4971230;28;20000;-87
2022/03/25 00:59:41;;;;;;;;;;;9.60;99.90;;;;;;4970835;28;19964;-88
2022/03/25 01:02:07;;;;;;;;;;;9.50;99.90;;;;;;4969650;28;19922;-87
2022/03/25 01:04:33;;;;;;;;;;;9.50;99.90;;;;;;4972782;28;19997;-87
2022/03/25 01:06:59;;;;;;;;;;;9.40;99.90;;;;;;4974553;28;19917;-87
2022/03/25 01:09:25;;;;;;;;;;;9.40;99.90;;;;;;4975569;28;19910;-87
2022/03/25 01:11:50;;;;;;;;;;;9.50;99.90;;;;;;4973335;28;19917;-87
2022/03/25 01:14:16;;;;;;;;;;;9.40;99.90;;;;;;4974220;28;19962;-87
2022/03/25 01:16:42;;;;;;;;;;;9.50;99.90;;;;;;4974408;28;19918;-87
2022/03/25 01:19:07;;;;;;;;;;;9.40;99.90;;;;;;4974157;28;20001;-87
2022/03/25 01:21:33;;;;;;;;;;;9.50;99.90;;;;;;4974063;28;19917;-87
2022/03/25 01:23:59;;;;;;;;;;;9.60;99.90;;;;;;4973841;28;19957;-87
2022/03/25 01:26:24;;;;;;;;;;;9.50;99.90;;;;;;4974122;28;20302;-87
2022/03/25 01:28:50;;;;;;;;;;;9.60;99.90;;;;;;4974359;28;19941;-87
2022/03/25 01:31:16;;;;;;;;;;;9.50;99.90;;;;;;4974388;28;19910;-87
2022/03/25 01:33:42;;;;;;;;;;;9.50;99.90;;;;;;4974094;28;20402;-87
2022/03/25 01:36:07;;;;;;;;;;;9.40;99.90;;;;;;4974207;28;19910;-88
2022/03/25 01:38:33;;;;;;;;;;;9.40;99.90;;;;;;4956302;28;19942;-87
2022/03/25 01:40:59;;;;;;;;;;;9.30;99.90;;;;;;4973964;28;19911;-87
2022/03/25 01:43:25;;;;;;;;;;;9.30;99.90;;;;;;4956572;28;19910;-88
2022/03/25 01:45:51;;;;;;;;;;;9.30;99.90;;;;;;4973934;28;20446;-87
2022/03/25 01:48:17;;;;;;;;;;;9.30;99.90;;;;;;4973962;28;19910;-88
2022/03/25 01:50:43;;;;;;;;;;;9.20;99.90;;;;;;4973720;28;19910;-87
2022/03/25 01:53:15;;;;;;;;;;;9.20;99.90;;;;;;4973664;28;20012;-87
2022/03/25 01:55:47;;;;;;;;;;;9.20;99.90;;;;;;4955728;28;19918;-86
2022/03/25 01:58:13;;;;;;;;;;;9.20;99.90;;;;;;4973550;28;19946;-87
2022/03/25 02:00:40;;;;;;;;;;;9.10;99.90;;;;;;4973447;28;20418;-87
2022/03/25 02:03:05;;;;;;;;;;;9.10;99.90;;;;;;4952861;29;19923;-87
2022/03/25 02:05:31;;;;;;;;;;;9.00;99.90;;;;;;4953871;29;19910;-88
2022/03/25 02:07:56;;;;;;;;;;;9.00;99.90;;;;;;4954237;29;19918;-87
2022/03/25 02:10:22;;;;;;;;;;;9.00;99.90;;;;;;4954251;29;19918;-87
2022/03/25 02:12:48;;;;;;;;;;;9.00;99.90;;;;;;4936763;29;19919;-87
2022/03/25 02:15:13;;;;;;;;;;;9.00;99.90;;;;;;4935818;29;19910;-87
2022/03/25 02:17:39;;;;;;;;;;;8.90;99.90;;;;;;4953879;29;20033;-87
2022/03/25 02:20:08;;;;;;;;;;;8.90;99.90;;;;;;4936571;29;19918;-87
2022/03/25 02:22:37;;;;;;;;;;;8.90;99.90;;;;;;4936502;29;19910;-87
2022/03/25 02:25:10;;;;;;;;;;;8.80;99.90;;;;;;4953741;29;19910;-87
2022/03/25 02:27:37;;;;;;;;;;;8.80;99.90;;;;;;4954077;29;19911;-87
2022/03/25 02:30:03;;;;;;;;;;;8.80;99.90;;;;;;4953830;29;19910;-88
2022/03/25 02:32:29;;;;;;;;;;;8.80;99.90;;;;;;4953548;29;19910;-87
2022/03/25 02:34:54;;;;;;;;;;;8.80;99.90;;;;;;4953808;29;20022;-87
2022/03/25 02:37:20;;;;;;;;;;;8.80;99.90;;;;;;4936400;29;19914;-87
2022/03/25 02:39:46;;;;;;;;;;;8.70;99.90;;;;;;4953210;29;20483;-87
2022/03/25 02:42:11;;;;;;;;;;;8.70;99.90;;;;;;4953172;29;19911;-87
2022/03/25 02:44:37;;;;;;;;;;;8.70;99.90;;;;;;4953358;29;19910;-87
2022/03/25 02:47:03;;;;;;;;;;;8.70;99.90;;;;;;4953447;29;19918;-87
2022/03/25 02:49:28;;;;;;;;;;;8.60;99.90;;;;;;4935908;29;19917;-87
2022/03/25 02:51:54;;;;;;;;;;;8.60;99.90;;;;;;4953459;29;19911;-87
2022/03/25 02:54:19;;;;;;;;;;;8.60;99.90;;;;;;4953294;29;19973;-87
2022/03/25 02:56:45;;;;;;;;;;;8.60;99.90;;;;;;4953214;29;19910;-87
2022/03/25 02:59:11;;;;;;;;;;;8.60;99.90;;;;;;4935722;29;20001;-87
2022/03/25 03:01:37;;;;;;;;;;;8.60;99.90;;;;;;4960036;28;19937;-87
2022/03/25 03:04:03;;;;;;;;;;;8.60;99.90;;;;;;4972225;28;20062;-87
2022/03/25 03:06:29;;;;;;;;;;;8.60;99.90;;;;;;4971882;28;19953;-87
2022/03/25 03:08:56;;;;;;;;;;;8.60;99.90;;;;;;4972425;28;19910;-87
2022/03/25 03:11:23;;;;;;;;;;;8.60;99.90;;;;;;4972424;28;19953;-87
2022/03/25 03:13:49;;;;;;;;;;;8.50;99.90;;;;;;4954816;28;20035;-87
2022/03/25 03:16:14;;;;;;;;;;;8.50;99.90;;;;;;4954916;28;20000;-87
2022/03/25 03:18:40;;;;;;;;;;;8.50;99.90;;;;;;4972207;28;19918;-87
2022/03/25 03:21:06;;;;;;;;;;;8.40;99.90;;;;;;4972163;28;19918;-87
2022/03/25 03:23:31;;;;;;;;;;;8.40;99.90;;;;;;4972003;28;19938;-87
2022/03/25 03:25:57;;;;;;;;;;;8.50;99.90;;;;;;4971871;28;20014;-87
2022/03/25 03:28:22;;;;;;;;;;;8.50;99.90;;;;;;4954266;28;20384;-87
2022/03/25 03:30:48;;;;;;;;;;;8.50;99.90;;;;;;4972217;28;20438;-88
2022/03/25 03:33:13;;;;;;;;;;;8.50;99.90;;;;;;4972106;28;20537;-87
2022/03/25 03:35:39;;;;;;;;;;;8.50;99.90;;;;;;4971930;28;19910;-87
2022/03/25 03:38:05;;;;;;;;;;;8.50;99.90;;;;;;4954711;28;19916;-87
2022/03/25 03:40:31;;;;;;;;;;;8.40;99.90;;;;;;4954163;28;19910;-87
2022/03/25 03:42:57;;;;;;;;;;;8.40;99.90;;;;;;4954116;28;20557;-87
2022/03/25 03:45:22;;;;;;;;;;;8.40;99.90;;;;;;4971243;28;19918;-87
2022/03/25 03:47:48;;;;;;;;;;;8.40;99.90;;;;;;4971737;28;19917;-87
2022/03/25 03:50:15;;;;;;;;;;;8.40;99.90;;;;;;4971916;28;19918;-87
2022/03/25 03:52:41;;;;;;;;;;;8.40;99.90;;;;;;4971478;28;19921;-87
2022/03/25 03:55:07;;;;;;;;;;;8.40;99.90;;;;;;4971817;28;19914;-87
2022/03/25 03:57:34;;;;;;;;;;;8.40;99.90;;;;;;4971905;28;20383;-87
2022/03/25 03:59:59;;;;;;;;;;;8.40;99.90;;;;;;4954488;28;19911;-87
2022/03/25 04:02:25;;;;;;;;;;;8.30;99.90;;;;;;4951094;29;19986;-87
2022/03/25 04:04:51;;;;;;;;;;;8.30;99.90;;;;;;4935083;29;19910;-87
2022/03/25 04:07:16;;;;;;;;;;;8.40;99.90;;;;;;4934857;29;19954;-87
2022/03/25 04:09:42;;;;;;;;;;;8.30;99.90;;;;;;4952151;29;20462;-87
2022/03/25 04:12:09;;;;;;;;;;;8.30;99.90;;;;;;4952420;29;20550;-87
2022/03/25 04:14:35;;;;;;;;;;;8.40;99.90;;;;;;4952317;29;19922;-87
2022/03/25 04:17:01;;;;;;;;;;;8.40;99.90;;;;;;4952357;29;19910;-87
2022/03/25 04:19:26;;;;;;;;;;;8.30;99.90;;;;;;4952109;29;19981;-88
2022/03/25 04:21:52;;;;;;;;;;;8.30;99.90;;;;;;4934674;29;20005;-88
2022/03/25 04:24:18;;;;;;;;;;;8.30;99.90;;;;;;4952103;29;20009;-88
2022/03/25 04:26:43;;;;;;;;;;;8.30;99.90;;;;;;4952425;29;19917;-88
2022/03/25 04:29:09;;;;;;;;;;;8.30;99.90;;;;;;4952167;29;19918;-88
2022/03/25 04:31:34;;;;;;;;;;;8.30;99.90;;;;;;4952376;29;19965;-87
2022/03/25 04:34:00;;;;;;;;;;;8.30;99.90;;;;;;4952392;29;20318;-87
2022/03/25 04:36:25;;;;;;;;;;;8.20;99.90;;;;;;4952437;29;20294;-87
2022/03/25 04:38:51;;;;;;;;;;;8.20;99.90;;;;;;4935868;29;20453;-87
2022/03/25 04:41:17;;;;;;;;;;;8.20;99.90;;;;;;4956156;29;19910;-86
2022/03/25 04:43:43;;;;;;;;;;;8.20;99.90;;;;;;4955823;29;20466;-87
2022/03/25 04:46:09;;;;;;;;;;;8.20;99.90;;;;;;4955812;29;19910;-87
2022/03/25 04:48:35;;;;;;;;;;;8.20;99.90;;;;;;4955636;29;19917;-87
2022/03/25 04:51:00;;;;;;;;;;;8.20;99.90;;;;;;4955819;29;19915;-87
2022/03/25 04:53:26;;;;;;;;;;;8.20;99.90;;;;;;4936920;29;19918;-87
2022/03/25 04:55:52;;;;;;;;;;;8.20;99.90;;;;;;4954140;29;20041;-87
2022/03/25 04:58:18;;;;;;;;;;;8.20;99.90;;;;;;4955950;29;19910;-88
2022/03/25 05:00:44;;;;;;;;;;;8.20;99.90;;;;;;4955644;28;20294;-87
2022/03/25 05:03:09;;;;;;;;;;;8.10;99.90;;;;;;4973087;28;19924;-90
2022/03/25 05:05:35;;;;;;;;;;;8.10;99.90;;;;;;4974631;28;19910;-87
2022/03/25 05:08:01;;;;;;;;;;;8.10;99.90;;;;;;4974446;28;19949;-88
2022/03/25 05:10:27;;;;;;;;;;;8.00;99.90;;;;;;4974432;28;19938;-87
2022/03/25 05:12:53;;;;;;;;;;;8.00;99.90;;;;;;4974300;28;20385;-87
2022/03/25 05:15:18;;;;;;;;;;;8.00;99.90;;;;;;4974376;28;19910;-86
2022/03/25 05:17:48;;;;;;;;;;;8.00;99.90;;;;;;4973284;28;19914;-87
2022/03/25 05:20:15;;;;;;;;;;;8.00;99.90;;;;;;4974507;28;19957;-87
2022/03/25 05:22:41;;;;;;;;;;;8.00;99.90;;;;;;4972770;28;19918;-88
2022/03/25 05:25:07;;;;;;;;;;;8.00;99.90;;;;;;4973831;28;19917;-87
2022/03/25 05:27:45;;;;;;;;;;;8.10;99.90;;;;;;4956709;28;19910;-87
2022/03/25 05:30:12;;;;;;;;;;;8.10;99.90;;;;;;4972970;28;19910;-87
2022/03/25 05:32:39;;;;;;;;;;;8.10;99.90;;;;;;4973875;28;19917;-87
2022/03/25 05:35:06;;;;;;;;;;;8.10;99.90;;;;;;4976048;28;19922;-91
2022/03/25 05:37:32;;;;;;;;;;;8.10;99.90;;;;;;4956338;28;19938;-91
2022/03/25 05:39:59;;;;;;;;;;;8.10;99.90;;;;;;4954409;29;19910;-90
2022/03/25 05:42:25;;;;;;;;;;;8.20;99.90;;;;;;4937236;29;19910;-90
2022/03/25 05:44:51;;;;;;;;;;;8.20;99.90;;;;;;4954489;29;19911;-90
2022/03/25 05:47:16;;;;;;;;;;;8.20;99.90;;;;;;4954023;29;19917;-90
2022/03/25 05:49:42;;;;;;;;;;;8.20;99.90;;;;;;4947586;28;20391;-90
2022/03/25 05:52:08;;;;;;;;;;;8.20;99.90;;;;;;4935161;29;19915;-90
2022/03/25 05:54:33;;;;;;;;;;;8.20;99.90;;;;;;4948748;29;19919;-91
2022/03/25 05:56:59;;;;;;;;;;;8.20;99.90;;;;;;4946123;29;19911;-91
2022/03/25 05:59:25;;;;;;;;;;;8.20;99.90;;;;;;4951192;29;19963;-92
2022/03/25 06:01:50;;;;;;;;;;;8.20;99.90;;;;;;4967430;28;19926;-91
2022/03/25 06:04:16;;;;;;;;;;;8.20;99.90;;;;;;4957938;28;19918;-91
2022/03/25 06:06:41;;;;;;;;;;;8.10;99.90;;;;;;4956895;28;19946;-91
2022/03/25 06:09:07;;;;;;;;;;;8.10;99.90;;;;;;4956978;28;19910;-92
2022/03/25 06:11:32;;;;;;;;;;;8.10;99.90;;;;;;4973868;28;19910;-91
2022/03/25 06:13:58;;;;;;;;;;;8.10;99.90;;;;;;4956666;28;20016;-90
2022/03/25 06:16:23;;;;;;;;;;;8.10;99.90;;;;;;4957966;28;20173;-91
2022/03/25 06:18:49;;;;;;;;;;;8.20;99.90;;;;;;4958297;28;19910;-92
2022/03/25 06:21:16;;;;;;;;;;;8.20;99.90;;;;;;4959947;28;19910;-91
2022/03/25 06:23:42;;;;;;;;;;;8.20;99.90;;;;;;4956375;28;19910;-92
2022/03/25 06:26:08;;;;;;;;;;;8.30;99.90;;;;;;4958642;28;19957;-92
2022/03/25 06:28:33;;;;;;;;;;;8.30;99.90;;;;;;4973616;28;19937;-92
2022/03/25 06:30:59;;;;;;;;;;;8.30;99.90;;;;;;4959181;28;19945;-92
2022/03/25 06:33:25;;;;;;;;;;;8.30;99.90;;;;;;4958193;28;19922;-92
2022/03/25 06:35:51;;;;;;;;;;;8.30;99.90;;;;;;4956216;28;20370;-91
2022/03/25 06:38:18;;;;;;;;;;;8.40;99.90;;;;;;4956685;28;19910;-91
2022/03/25 06:40:43;;;;;;;;;;;8.40;99.90;;;;;;4957802;28;20017;-91
2022/03/25 06:43:09;;;;;;;;;;;8.50;99.90;;;;;;4952498;28;20005;-93
2022/03/25 06:45:35;;;;;;;;;;;8.50;99.90;;;;;;4969355;28;19911;-93
2022/03/25 06:48:00;;;;;;;;;;;8.50;99.90;;;;;;4968689;28;20405;-93
2022/03/25 06:50:26;;;;;;;;;;;8.60;99.90;;;;;;4969315;28;20331;-94
2022/03/25 06:52:53;;;;;;;;;;;8.70;99.90;;;;;;4969022;28;19910;-93
2022/03/25 06:55:19;;;;;;;;;;;8.80;99.90;;;;;;4969729;28;19949;-93
2022/03/25 06:57:45;;;;;;;;;;;8.90;99.90;;;;;;4968846;28;20402;-93
2022/03/25 07:00:12;;;;;;;;;;;9.10;99.90;;;;;;4968682;28;19964;-94
2022/03/25 07:02:41;;;;;;;;;;;9.20;99.90;;;;;;4967597;28;19950;-93
2022/03/25 07:05:07;;;;;;;;;;;9.30;99.90;;;;;;4968693;28;20496;-93
2022/03/25 07:07:34;;;;;;;;;;;9.40;99.90;;;;;;4968854;28;19911;-93
2022/03/25 07:10:00;;;;;;;;;;;9.60;99.90;;;;;;4968548;28;19918;-93
2022/03/25 07:12:25;;;;;;;;;;;9.60;99.90;;;;;;4968825;28;20279;-93
2022/03/25 07:14:51;;;;;;;;;;;9.70;99.90;;;;;;4968031;28;19923;-93
2022/03/25 07:17:33;;;;;;;;;;;;;;;;;;;;;
2022/03/25 07:20:00;;;;;;;;;;;10.10;99.90;;;;;;4947913;28;20004;-93
2022/03/25 07:22:44;;;;;;;;;;;;;;;;;;;;;
2022/03/25 07:25:30;;;;;;;;;;;10.30;99.90;;;;;;4953497;29;19911;-92
2022/03/25 07:31:13;;;;;;;;;;;10.60;99.90;;;;;;4952394;28;20002;-93
2022/03/25 07:33:41;;;;;;;;;;;10.80;99.90;;;;;;4968149;28;20028;-96
2022/03/25 07:36:07;;;;;;;;;;;10.90;99.90;;;;;;4968563;28;19910;-92
2022/03/25 07:38:36;;;;;;;;;;;11.00;99.90;;;;;;4968326;28;19910;-92
2022/03/25 07:41:03;;;;;;;;;;;11.10;99.90;;;;;;4968057;28;20359;-92
2022/03/25 07:43:29;;;;;;;;;;;11.10;99.90;;;;;;4968021;28;19958;-93
2022/03/25 07:45:57;;;;;;;;;;;11.20;99.90;;;;;;4967794;28;19957;-92
2022/03/25 07:48:28;;;;;;;;;;;11.30;98.90;;;;;;4970501;28;19910;-92
2022/03/25 07:50:54;;;;;;;;;;;11.40;98.10;;;;;;4967757;28;19958;-92
2022/03/25 07:53:25;;;;;;;;;;;11.50;97.20;;;;;;4953159;28;19922;-92
2022/03/25 07:56:12;;;;;;;;;;;;;;;;;;;;;
2022/03/25 07:59:05;;;;;;;;;;;11.70;97.00;;;;;;4951393;28;19917;-92
2022/03/25 08:01:33;;;;;;;;;;;11.90;96.30;;;;;;4958312;28;19945;-94
2022/03/25 08:04:57;;;;;;;;;;;12.00;96.50;;;;;;4954819;28;19910;-92
2022/03/25 08:07:43;;;;;;;;;;;12.10;96.00;;;;;;4967585;28;20021;-94
2022/03/25 08:10:19;;;;;;;;;;;12.30;96.40;;;;;;4972413;28;20271;-93
2022/03/25 08:12:51;;;;;;;;;;;12.30;96.10;;;;;;4956795;28;19926;-93
2022/03/25 08:15:20;;;;;;;;;;;12.40;95.40;;;;;;4959736;28;19914;-92
2022/03/25 08:17:55;;;;;;;;;;;12.50;95.90;;;;;;4952877;28;19910;-92
2022/03/25 08:20:24;;;;;;;;;;;12.60;95.20;;;;;;4959819;28;19950;-93
2022/03/25 08:22:50;;;;;;;;;;;12.70;95.00;;;;;;4960328;28;19933;-93
2022/03/25 08:28:03;;;;;;;;;;;12.90;94.30;;;;;;4980109;28;19965;-95
2022/03/25 08:30:30;;;;;;;;;;;13.10;93.90;;;;;;4958263;28;19910;-93
2022/03/25 08:32:57;;;;;;;;;;;13.20;93.00;;;;;;4959629;28;20433;-85
2022/03/25 08:35:27;;;;;;;;;;;13.30;92.90;;;;;;4975671;28;19910;-83
2022/03/25 08:37:53;;;;;;;;;;;13.40;93.10;;;;;;4978517;28;19990;-84
2022/03/25 08:40:23;;;;;;;;;;;13.50;92.10;;;;;;4976285;28;19910;-83
2022/03/25 08:42:49;;;;;;;;;;;13.50;92.00;;;;;;4977423;28;19910;-83
2022/03/25 08:45:16;;;;;;;;;;;13.60;90.90;;;;;;4975257;28;19932;-85
2022/03/25 08:47:42;;;;;;;;;;;13.70;91.40;;;;;;4975988;28;20359;-84
2022/03/25 08:50:09;;;;;;;;;;;13.90;90.60;;;;;;4974589;28;19910;-83
2022/03/25 08:52:35;;;;;;;;;;;14.00;91.00;;;;;;4975815;28;19958;-85
2022/03/25 08:55:04;;;;;;;;;;;14.20;91.10;;;;;;4977264;28;20367;-84
2022/03/25 08:57:30;;;;;;;;;;;14.40;92.30;;;;;;4974661;28;19914;-84
2022/03/25 08:59:56;;;;;;;;;;;14.60;90.50;;;;;;4957410;28;20374;-84
2022/03/25 09:02:22;;;;;;;;;;;14.80;89.20;;;;;;4974735;28;19922;-84
2022/03/25 09:04:47;;;;;;;;;;;14.90;87.60;;;;;;4974260;28;19915;-84
2022/03/25 09:07:13;;;;;;;;;;;15.00;86.90;;;;;;4976309;28;20009;-84
2022/03/25 09:09:39;;;;;;;;;;;15.20;87.10;;;;;;4975355;28;19917;-85
2022/03/25 09:12:04;;;;;;;;;;;15.20;85.00;;;;;;4957261;28;19911;-85
2022/03/25 09:14:30;;;;;;;;;;;15.30;82.40;;;;;;4975418;28;20049;-85
2022/03/25 09:16:56;;;;;;;;;;;15.30;83.20;;;;;;4956447;28;19918;-85
2022/03/25 09:19:21;;;;;;;;;;;15.30;82.20;;;;;;4973183;28;19993;-85
2022/03/25 09:21:47;;;;;;;;;;;15.30;80.00;;;;;;4969271;28;19918;-85
2022/03/25 09:24:12;;;;;;;;;;;15.30;79.80;;;;;;4969121;28;19910;-85
2022/03/25 09:26:38;;;;;;;;;;;15.40;80.40;;;;;;4954544;28;19910;-85
2022/03/25 09:29:04;;;;;;;;;;;15.50;80.80;;;;;;4953240;28;19910;-86
2022/03/25 09:31:30;;;;;;;;;;;15.60;80.70;;;;;;4969331;28;19917;-85
2022/03/25 09:35:08;;;;;;;;;;;15.60;80.40;;;;;;4954385;28;19926;-85
2022/03/25 09:36:41;;;;;;;;;;;15.70;80.20;;;;;;4954507;28;19977;-85
2022/03/25 09:39:06;;;;;;;;;;;15.80;79.00;;;;;;4954794;28;19911;-85
2022/03/25 09:41:32;;;;;;;;;;;15.80;77.40;;;;;;4957112;29;19910;-85
2022/03/25 09:43:58;;;;;;;;;;;15.90;77.00;;;;;;4953056;28;20403;-85
2022/03/25 09:46:24;;;;;;;;;;;15.90;76.20;;;;;;4952801;28;19966;-85
2022/03/25 09:48:50;;;;;;;;;;;15.90;76.60;;;;;;4953807;28;19952;-85
2022/03/25 09:51:15;;;;;;;;;;;16.00;76.20;;;;;;4954239;29;20001;-84
2022/03/25 09:53:41;;;;;;;;;;;16.00;76.10;;;;;;4953809;29;20085;-84
2022/03/25 09:56:07;;;;;;;;;;;16.00;75.40;;;;;;4968910;28;19942;-84
2022/03/25 09:58:32;;;;;;;;;;;15.90;75.70;;;;;;4954189;28;20418;-84
2022/03/25 10:00:59;;;;;;;;;;;16.00;76.60;;;;;;4955275;28;19941;-84
2022/03/25 10:03:27;;;;;;;;;;;16.00;73.60;;;;;;4973354;28;19993;-84
2022/03/25 10:05:57;;;;;;;;;;;16.00;75.00;;;;;;4974623;28;20371;-84
2022/03/25 10:08:30;;;;;;;;;;;16.00;74.10;;;;;;4976993;28;19910;-83
2022/03/25 10:10:55;;;;;;;;;;;16.10;73.90;;;;;;4978234;28;19917;-84
2022/03/25 10:13:21;;;;;;;;;;;16.10;74.70;;;;;;4974801;28;19918;-84
2022/03/25 10:15:46;;;;;;;;;;;16.20;72.60;;;;;;4974902;28;20372;-84
2022/03/25 10:18:12;;;;;;;;;;;16.20;72.70;;;;;;4976516;28;19906;-84
2022/03/25 10:20:41;;;;;;;;;;;16.30;71.10;;;;;;4972771;28;19910;-84
2022/03/25 10:23:07;;;;;;;;;;;16.40;72.60;;;;;;4974527;28;19910;-84
2022/03/25 10:25:37;;;;;;;;;;;16.50;71.30;;;;;;4974035;28;19958;-84
2022/03/25 10:28:04;;;;;;;;;;;16.60;70.60;;;;;;4972861;28;19914;-84
2022/03/25 10:30:36;;;;;;;;;;;16.70;71.00;;;;;;4974050;28;19910;-84
2022/03/25 10:33:12;;;;;;;;;;;16.60;69.40;;;;;;4975365;28;19910;-84
2022/03/25 10:35:56;;;;;;;;;;;16.50;67.90;;;;;;4972447;28;20098;-84
2022/03/25 10:38:22;;;;;;;;;;;16.60;69.80;;;;;;4972377;28;19956;-84
2022/03/25 10:40:51;;;;;;;;;;;16.90;71.20;;;;;;4974297;28;20001;-84
2022/03/25 10:43:17;;;;;;;;;;;17.10;69.70;;;;;;4975921;28;19910;-84
2022/03/25 10:45:43;;;;;;;;;;;17.30;69.40;;;;;;4954929;28;19917;-81
2022/03/25 10:48:12;;;;;;;;;;;17.50;70.90;;;;;;4972736;28;19910;-81
2022/03/25 10:51:13;;;;;;;;;;;17.60;70.40;;;;;;4973338;28;19926;-81
2022/03/25 10:53:43;;;;;;;;;;;17.80;69.50;;;;;;4913282;29;19928;-80
2022/03/25 10:56:10;;;;;;;;;;;17.90;67.50;;;;;;4962166;28;20300;-82
2022/03/25 10:58:36;;;;;;;;;;;18.00;70.30;;;;;;4972787;28;19910;-82
2022/03/25 11:01:03;;;;;;;;;;;18.00;70.20;;;;;;4956031;28;19917;-82
2022/03/25 11:03:28;;;;;;;;;;;18.10;67.60;;;;;;4972606;28;19976;-81
2022/03/25 11:05:54;;;;;;;;;;;18.20;66.30;;;;;;4974117;28;19914;-82
2022/03/25 11:08:20;;;;;;;;;;;18.20;66.20;;;;;;4973184;28;19910;-82
2022/03/25 11:10:46;;;;;;;;;;;18.30;66.60;;;;;;4972901;28;19910;-84
2022/03/25 11:13:11;;;;;;;;;;;18.30;65.20;;;;;;4971919;28;19941;-82
2022/03/25 11:15:38;;;;;;;;;;;18.30;63.90;;;;;;4971945;28;20090;-82
2022/03/25 11:18:03;;;;;;;;;;;18.40;64.00;;;;;;4972070;28;19965;-82
2022/03/25 11:20:29;;;;;;;;;;;18.50;63.20;;;;;;4971998;28;19910;-82
2022/03/25 11:23:01;;;;;;;;;;;18.60;62.30;;;;;;4954773;28;19910;-82
2022/03/25 11:25:28;;;;;;;;;;;18.60;63.80;;;;;;4954564;28;19910;-83
2022/03/25 11:27:57;;;;;;;;;;;18.70;63.70;;;;;;4971828;28;19910;-82
2022/03/25 11:30:23;;;;;;;;;;;18.70;63.70;;;;;;4973127;28;19906;-82
2022/03/25 11:33:04;;;;;;;;;;;18.80;66.10;;;;;;4953453;28;19921;-82
2022/03/25 11:35:42;;;;;;;;;;;19.10;64.20;;;;;;4971019;28;20054;-82
2022/03/25 11:38:14;;;;;;;;;;;19.20;64.30;;;;;;4971517;28;19971;-82
2022/03/25 11:40:45;;;;;;;;;;;19.10;64.60;;;;;;4979854;28;19984;-76
2022/03/25 11:43:16;;;;;;;;;;;19.30;64.80;;;;;;4971055;28;19914;-82
2022/03/25 11:45:43;;;;;;;;;;;19.20;63.30;;;;;;4975910;28;19907;-82
2022/03/25 11:48:08;;;;;;;;;;;19.30;62.00;;;;;;4961411;28;19953;-81
2022/03/25 11:50:43;;;;;;;;;;;19.40;63.90;;;;;;4982600;28;19906;-81
2022/03/25 11:53:12;;;;;;;;;;;19.50;63.20;;;;;;4982150;28;19938;-82
2022/03/25 11:55:56;;;;;;;;;;;19.60;62.20;;;;;;4981735;28;19910;-81
2022/03/25 11:58:22;;;;;;;;;;;19.80;59.30;;;;;;4977754;28;19941;-82
2022/03/25 12:00:48;;;;;;;;;;;19.90;59.10;;;;;;4975058;28;19937;-81
2022/03/25 12:03:14;;;;;;;;;;;19.90;60.40;;;;;;4974856;28;19961;-81
2022/03/25 12:05:56;;;;;;;;;;;19.80;57.50;;;;;;4978554;28;19913;-80
2022/03/25 12:08:30;;;;;;;;;;;19.90;57.50;;;;;;4980705;28;19980;-80
2022/03/25 12:10:56;;;;;;;;;;;19.90;57.20;;;;;;4979546;28;19910;-80
2022/03/25 12:13:23;;;;;;;;;;;20.10;57.50;;;;;;4976032;28;19917;-81
2022/03/25 12:15:49;;;;;;;;;;;20.30;57.00;;;;;;4972837;28;19992;-83
2022/03/25 12:18:33;;;;;;;;;;;20.40;56.00;;;;;;4972184;28;19940;-81
2022/03/25 12:20:59;;;;;;;;;;;20.50;54.20;;;;;;4973489;28;19910;-81
2022/03/25 12:23:25;;;;;;;;;;;20.60;54.40;;;;;;4971512;28;19918;-81
2022/03/25 12:25:50;;;;;;;;;;;20.70;54.90;;;;;;4972833;28;19914;-81
2022/03/25 12:28:22;;;;;;;;;;;20.70;52.50;;;;;;4971346;28;19910;-81
2022/03/25 12:30:48;;;;;;;;;;;20.70;51.20;;;;;;4974612;28;19938;-81
2022/03/25 12:33:13;;;;;;;;;;;20.80;51.20;;;;;;4974755;28;19910;-81
2022/03/25 12:35:39;;;;;;;;;;;21.00;51.80;;;;;;4973367;28;20035;-80
2022/03/25 12:38:08;;;;;;;;;;;21.20;51.60;;;;;;4974695;28;19960;-81
2022/03/25 12:40:34;;;;;;;;;;;21.40;51.70;;;;;;4971066;28;19917;-81
2022/03/25 12:43:08;;;;;;;;;;;21.30;52.70;;;;;;4971376;28;20287;-80
2022/03/25 12:45:49;;;;;;;;;;;21.40;53.10;;;;;;4971003;28;19917;-81
2022/03/25 12:48:18;;;;;;;;;;;21.40;52.30;;;;;;4970691;28;19917;-80
2022/03/25 12:50:45;;;;;;;;;;;21.50;53.00;;;;;;4970729;28;19917;-80
2022/03/25 12:53:11;;;;;;;;;;;21.50;52.20;;;;;;4971300;28;19910;-80
2022/03/25 12:55:37;;;;;;;;;;;21.60;52.00;;;;;;4972312;28;20186;-80
2022/03/25 12:58:02;;;;;;;;;;;21.80;49.70;;;;;;4971879;28;19917;-81
2022/03/25 13:00:32;;;;;;;;;;;21.90;51.90;;;;;;4972272;28;20064;-80
2022/03/25 13:02:58;;;;;;;;;;;22.10;52.20;;;;;;4953340;29;19929;-81
2022/03/25 13:05:25;;;;;;;;;;;22.20;52.00;;;;;;4955319;29;20311;-82
2022/03/25 13:07:56;;;;;;;;;;;22.30;52.10;;;;;;4955147;29;20394;-82
2022/03/25 13:10:22;;;;;;;;;;;22.10;51.60;;;;;;4954447;29;20445;-82
2022/03/25 13:12:52;;;;;;;;;;;22.10;51.40;;;;;;4954127;28;20379;-81
2022/03/25 13:15:18;;;;;;;;;;;22.30;52.40;;;;;;4954410;29;19938;-82
2022/03/25 13:17:45;;;;;;;;;;;22.50;51.40;;;;;;4955939;29;20039;-80
2022/03/25 13:20:16;;;;;;;;;;;22.80;52.60;;;;;;4954939;29;20143;-81
2022/03/25 13:23:00;;;;;;;;;;;22.80;51.90;;;;;;4954111;29;19919;-79
2022/03/25 13:25:31;;;;;;;;;;;22.80;51.40;;;;;;4936944;29;19914;-80
2022/03/25 13:27:58;;;;;;;;;;;22.80;52.30;;;;;;4956624;29;19972;-80
2022/03/25 13:30:24;;;;;;;;;;;22.90;50.50;;;;;;4958082;29;20210;-80
2022/03/25 13:33:08;;;;;;;;;;;23.10;48.90;;;;;;4959961;29;20098;-80
2022/03/25 13:35:38;;;;;;;;;;;23.10;49.90;;;;;;4963426;29;19981;-80
2022/03/25 13:38:06;;;;;;;;;;;23.30;49.10;;;;;;4956857;29;20375;-80
2022/03/25 13:40:33;;;;;;;;;;;23.40;49.20;;;;;;4955268;29;19957;-81
2022/03/25 13:42:59;;;;;;;;;;;23.50;48.60;;;;;;4954317;29;20035;-80
2022/03/25 13:45:25;;;;;;;;;;;23.50;48.40;;;;;;4954501;29;19958;-80
2022/03/25 13:48:10;;;;;;;;;;;23.60;47.90;;;;;;4953980;29;19910;-82
2022/03/25 13:50:45;;;;;;;;;;;23.80;50.40;;;;;;4954995;29;19918;-82
2022/03/25 13:53:12;;;;;;;;;;;23.80;48.40;;;;;;4962412;29;19917;-82
2022/03/25 13:55:39;;;;;;;;;;;23.90;47.30;;;;;;4956474;29;19910;-82
2022/03/25 13:58:11;;;;;;;;;;;23.90;49.20;;;;;;4941359;29;19934;-82
2022/03/25 14:00:38;;;;;;;;;;;24.10;49.50;;;;;;4956740;29;19917;-82
2022/03/25 14:03:04;;;;;;;;;;;24.10;48.40;;;;;;4959344;29;20304;-80
2022/03/25 14:05:36;;;;;;;;;;;24.00;46.80;;;;;;4954229;29;19950;-80
2022/03/25 14:08:02;;;;;;;;;;;24.00;47.20;;;;;;4954177;29;19910;-80
2022/03/25 14:10:28;;;;;;;;;;;24.10;47.40;;;;;;4953556;28;19914;-80
2022/03/25 14:13:12;;;;;;;;;;;24.00;46.80;;;;;;4953777;29;19997;-80
2022/03/25 14:15:37;;;;;;;;;;;23.90;47.80;;;;;;4953604;29;19926;-80
2022/03/25 14:18:03;;;;;;;;;;;23.70;45.30;;;;;;4953810;29;19910;-80
2022/03/25 14:20:32;;;;;;;;;;;23.70;47.90;;;;;;4954198;29;19910;-80
2022/03/25 14:23:02;;;;;;;;;;;23.60;48.60;;;;;;4954783;29;19910;-80
2022/03/25 14:25:30;;;;;;;;;;;23.60;47.30;;;;;;4953985;29;19910;-79
2022/03/25 14:27:59;;;;;;;;;;;23.90;48.10;;;;;;4936800;29;19926;-79
2022/03/25 14:30:28;;;;;;;;;;;24.50;48.70;;;;;;4955078;29;20016;-80
2022/03/25 14:32:54;;;;;;;;;;;24.40;48.00;;;;;;4955634;29;19911;-80
2022/03/25 14:35:22;;;;;;;;;;;24.60;48.50;;;;;;4954032;29;20654;-80